Time;durP1;ratioP1;P1;durP2;ratioP2;P2;SDS_P1;SDS_P2;PMS_P1;PMS_P2;Temp;Humidity;BMP_temperature;BMP_pressure;BME280_temperature;BME280_humidity;BME280_pressure;Samples;Min_cycle;Max_cycle;Signal;HPM_P1;HPM_P2
2022/09/19 00:01:15;;;;;;;16.23;2.63;;;;;;;9.38;100.00;67815.59;4971474;28;20046;-82
2022/09/19 00:03:43;;;;;;;16.00;2.70;;;;;;;9.37;100.00;67809.16;4971574;28;20040;-81
2022/09/19 00:06:11;;;;;;;15.90;3.50;;;;;;;9.32;100.00;67809.38;4971057;28;20579;-81
2022/09/19 00:08:38;;;;;;;14.20;3.05;;;;;;;9.33;100.00;67813.16;4970338;28;20038;-81
2022/09/19 00:11:03;;;;;;;10.75;2.70;;;;;;;9.33;100.00;67805.19;4972059;28;20118;-81
2022/09/19 00:13:31;;;;;;;16.05;3.22;;;;;;;9.35;100.00;67806.88;4971305;28;20096;-82
2022/09/19 00:15:56;;;;;;;13.63;2.65;;;;;;;;;;4973535;28;20042;-82
2022/09/19 00:18:22;;;;;;;15.07;2.60;;;;;;;;;;4974160;28;20043;-82
2022/09/19 00:20:49;;;;;;;12.60;2.20;;;;;;;9.34;100.00;67805.75;4977379;28;20498;-82
2022/09/19 00:26:11;;;;;;;10.50;2.63;;;;;;;9.28;100.00;67796.84;4973403;28;20158;-82
2022/09/19 00:28:37;;;;;;;10.98;2.78;;;;;;;9.29;100.00;67800.06;4951069;28;20073;-82
2022/09/19 00:31:03;;;;;;;12.07;2.70;;;;;;;;;;4969887;28;20047;-82
2022/09/19 00:33:31;;;;;;;13.80;3.03;;;;;;;9.30;100.00;67798.56;4967956;28;20417;-81
2022/09/19 00:35:59;;;;;;;14.95;2.95;;;;;;;;;;4969156;28;20039;-81
2022/09/19 00:38:26;;;;;;;14.93;2.72;;;;;;;9.35;100.00;67812.19;4967378;28;20119;-81
2022/09/19 00:40:52;;;;;;;18.88;2.83;;;;;;;9.38;100.00;67810.28;4983833;28;20043;-81
2022/09/19 00:43:19;;;;;;;15.52;3.20;;;;;;;9.38;100.00;67810.88;4969385;28;20090;-82
2022/09/19 00:45:45;;;;;;;16.42;2.50;;;;;;;;;;4971403;28;20517;-82
2022/09/19 00:48:16;;;;;;;11.32;2.58;;;;;;;9.36;100.00;67813.91;4971238;28;20496;-82
2022/09/19 00:50:44;;;;;;;15.35;3.15;;;;;;;;;;4976668;28;20043;-82
2022/09/19 00:53:13;;;;;;;14.20;2.88;;;;;;;9.34;100.00;67805.75;4972172;28;20052;-82
2022/09/19 00:55:40;;;;;;;15.50;2.75;;;;;;;9.33;100.00;67809.94;4960396;28;20055;-82
2022/09/19 00:58:29;;;;;;;10.38;2.63;;;;;;;9.30;100.00;67801.22;4953946;28;20518;-82
2022/09/19 01:00:56;;;;;;;13.65;2.97;;;;;;;9.25;100.00;67802.00;4975109;28;20110;-82
2022/09/19 01:03:24;;;;;;;11.80;2.63;;;;;;;;;;4971387;28;20049;-82
2022/09/19 01:06:02;;;;;;;17.00;2.88;;;;;;;;;;4971347;28;20094;-82
2022/09/19 01:08:48;;;;;;;14.75;2.88;;;;;;;9.22;100.00;67793.28;4972501;28;20521;-82
2022/09/19 01:11:13;;;;;;;11.70;2.75;;;;;;;;;;4970574;28;20135;-82
2022/09/19 01:13:54;;;;;;;12.93;3.20;;;;;;;9.21;100.00;67791.59;4973079;28;20138;-82
2022/09/19 01:16:33;;;;;;;15.55;3.47;;;;;;;;;;4969895;28;20462;-82
2022/09/19 01:19:05;;;;;;;;;;;;;;;;;;4972032;28;20541;-81
2022/09/19 01:21:45;;;;;;;8.70;2.67;;;;;;;;;;4964157;28;20389;-82
2022/09/19 01:24:19;;;;;;;11.85;2.40;;;;;;;;;;4971841;28;20078;-82
2022/09/19 01:27:18;;;;;;;17.60;3.45;;;;;;;;;;4971062;28;20126;-81
2022/09/19 01:29:43;;;;;;;14.27;2.90;;;;;;;;;;4938738;28;20101;-82
2022/09/19 01:32:13;;;;;;;13.17;2.37;;;;;;;9.04;100.00;67773.44;4970754;28;20648;-82
2022/09/19 01:34:44;;;;;;;12.20;2.90;;;;;;;;;;4973029;28;20329;-83
2022/09/19 01:37:17;;;;;;;10.90;2.05;;;;;;;9.07;100.00;67776.28;4969456;28;20042;-83
2022/09/19 01:39:45;;;;;;;12.07;3.08;;;;;;;;;;4958531;28;20118;-83
2022/09/19 01:42:15;;;;;;;13.13;2.83;;;;;;;9.06;100.00;67775.13;4949546;28;20043;-82
2022/09/19 01:44:40;;;;;;;15.73;2.47;;;;;;;;;;4952856;28;20048;-83
2022/09/19 01:47:21;;;;;;;14.20;2.08;;;;;;;9.05;100.00;67774.00;4944790;28;20040;-82
2022/09/19 01:50:14;;;;;;;14.50;2.78;;;;;;;9.03;100.00;67777.63;4947768;28;20534;-82
2022/09/19 01:52:39;;;;;;;12.70;2.50;;;;;;;;;;4957610;28;20078;-82
2022/09/19 01:55:23;;;;;;;14.25;2.95;;;;;;;9.02;100.00;67770.63;4968273;28;20043;-83
2022/09/19 01:58:07;;;;;;;10.57;2.72;;;;;;;;;;4988720;28;20045;-83
2022/09/19 02:00:34;;;;;;;12.23;3.03;;;;;;;8.99;100.00;67767.22;4946158;28;20058;-83
2022/09/19 02:03:06;;;;;;;16.15;3.13;;;;;;;9.01;100.00;67769.50;4970383;28;20043;-82
2022/09/19 02:05:43;;;;;;;9.27;2.78;;;;;;;9.10;100.00;67779.69;4970548;28;20051;-83
2022/09/19 02:08:35;;;;;;;12.55;3.13;;;;;;;9.07;100.00;67781.59;4975569;28;20133;-82
2022/09/19 02:11:11;;;;;;;12.95;3.13;;;;;;;9.12;100.00;67781.38;4971834;28;20039;-82
2022/09/19 02:13:38;;;;;;;11.30;2.28;;;;;;;;;;4952223;28;20042;-82
2022/09/19 02:16:11;;;;;;;18.73;2.90;;;;;;;9.22;100.00;67790.06;4970764;28;20513;-82
2022/09/19 02:18:53;;;;;;;12.38;2.83;;;;;;;9.24;100.00;67795.00;4962785;28;20039;-82
2022/09/19 02:21:24;;;;;;;13.00;3.08;;;;;;;9.23;100.00;67799.72;4971537;28;20447;-82
2022/09/19 02:23:54;;;;;;;12.38;2.38;;;;;;;9.25;100.00;67793.47;4971645;28;20554;-81
2022/09/19 02:26:21;;;;;;;16.10;2.85;;;;;;;;;;4971677;28;20507;-82
2022/09/19 02:28:54;;;;;;;10.60;2.50;;;;;;;9.26;100.00;67803.13;4971375;28;20034;-82
2022/09/19 02:31:21;;;;;;;13.23;3.05;;;;;;;9.31;100.00;67807.66;4971452;28;20099;-81
2022/09/19 02:33:46;;;;;;;13.05;2.28;;;;;;;;;;4972209;28;20046;-81
2022/09/19 02:36:19;;;;;;;13.23;3.10;;;;;;;9.35;100.00;67806.88;4953329;28;20049;-82
2022/09/19 02:38:56;;;;;;;14.05;3.35;;;;;;;9.32;100.00;67803.47;4972048;28;20125;-82
2022/09/19 02:41:36;;;;;;;11.98;2.80;;;;;;;9.32;100.00;67808.78;4971370;28;20059;-82
2022/09/19 02:44:24;;;;;;;11.93;3.67;;;;;;;9.32;100.00;67803.47;4972528;28;20429;-82
2022/09/19 02:47:02;;;;;;;14.00;2.60;;;;;;;;;;4966104;28;20504;-82
2022/09/19 02:49:49;;;;;;;6.97;2.53;;;;;;;9.23;100.00;67793.84;4952862;28;20281;-82
2022/09/19 02:52:17;;;;;;;9.40;2.55;;;;;;;;;;4969391;28;20037;-82
2022/09/19 02:54:45;;;;;;;11.02;2.58;;;;;;;;;;4970036;28;20070;-82
2022/09/19 02:57:16;;;;;;;9.23;2.17;;;;;;;9.17;100.00;67787.03;4970340;28;20073;-82
2022/09/19 02:59:46;;;;;;;13.70;3.17;;;;;;;9.11;100.00;67780.81;4970063;28;20502;-82
2022/09/19 03:02:19;;;;;;;13.15;3.20;;;;;;;9.09;100.00;67778.56;4968977;28;20059;-82
2022/09/19 03:04:52;;;;;;;14.90;3.20;;;;;;;9.08;100.00;67782.72;4968070;28;20041;-82
2022/09/19 03:07:24;;;;;;;10.95;2.67;;;;;;;9.05;100.00;67771.34;4968627;28;20050;-83
2022/09/19 03:09:59;;;;;;;11.80;2.80;;;;;;;9.00;100.00;67773.66;4967966;28;20078;-82
2022/09/19 03:12:44;;;;;;;15.15;2.75;;;;;;;8.99;100.00;67772.53;4970487;28;20505;-82
2022/09/19 03:15:10;;;;;;;14.95;3.25;;;;;;;;;;4968301;28;20074;-82
2022/09/19 03:17:41;;;;;;;11.10;2.83;;;;;;;8.89;100.00;67755.88;4950663;28;20066;-83
2022/09/19 03:20:11;;;;;;;17.73;3.00;;;;;;;;;;4955418;28;20127;-82
2022/09/19 03:22:39;;;;;;;14.48;3.90;;;;;;;8.90;100.00;67762.34;4971089;28;20051;-82
2022/09/19 03:25:07;;;;;;;15.50;3.13;;;;;;;8.82;100.00;67748.53;4969870;28;20035;-83
2022/09/19 03:27:32;;;;;;;11.85;3.00;;;;;;;8.80;100.00;67746.84;4967457;28;20110;-82
2022/09/19 03:29:58;;;;;;;12.43;3.28;;;;;;;;;;4961649;28;20669;-81
2022/09/19 03:32:26;;;;;;;15.68;3.55;;;;;;;8.80;100.00;67746.84;4971447;28;20507;-82
2022/09/19 03:34:54;;;;;;;11.87;3.43;;;;;;;8.82;100.00;67748.53;4970638;28;20706;-82
2022/09/19 03:37:21;;;;;;;16.25;3.08;;;;;;;8.79;100.00;67751.00;4971787;28;20332;-82
2022/09/19 03:39:46;;;;;;;15.55;3.53;;;;;;;8.81;100.00;67753.25;4965219;28;20100;-82
2022/09/19 03:42:14;;;;;;;15.57;3.25;;;;;;;8.86;100.00;67752.47;4961843;28;20058;-82
2022/09/19 03:44:39;;;;;;;10.25;3.28;;;;;;;8.85;100.00;67756.66;4980730;28;20046;-82
2022/09/19 03:47:05;;;;;;;14.50;3.40;;;;;;;8.86;100.00;67757.78;4970209;28;20050;-82
2022/09/19 03:49:30;;;;;;;14.85;3.75;;;;;;;8.90;100.00;67762.34;4950535;28;20056;-83
2022/09/19 03:51:57;;;;;;;14.30;3.35;;;;;;;8.90;100.00;67754.38;4952419;29;20040;-82
2022/09/19 03:54:22;;;;;;;12.27;3.40;;;;;;;8.88;100.00;67760.06;4944519;28;20043;-82
2022/09/19 03:56:48;;;;;;;14.55;4.20;;;;;;;;;;4951927;28;20046;-82
2022/09/19 03:59:13;;;;;;;14.57;3.08;;;;;;;8.84;100.00;67750.22;4950948;28;20071;-82
2022/09/19 04:01:38;;;;;;;17.05;3.65;;;;;;;8.88;100.00;67755.31;4970095;28;20067;-81
2022/09/19 04:04:05;;;;;;;15.02;3.88;;;;;;;;;;4969639;28;20042;-81
2022/09/19 04:06:30;;;;;;;14.98;4.05;;;;;;;8.83;100.00;67747.00;4969719;28;20043;-81
2022/09/19 04:08:55;;;;;;;14.70;3.97;;;;;;;8.86;100.00;67757.78;4969377;28;20063;-82
2022/09/19 04:11:21;;;;;;;9.80;3.08;;;;;;;8.92;100.00;67764.59;4957685;28;20044;-82
2022/09/19 04:13:49;;;;;;;18.98;3.25;;;;;;;8.97;100.00;67762.28;4950470;28;20047;-83
2022/09/19 04:16:17;;;;;;;15.07;3.47;;;;;;;8.96;100.00;67764.38;4978520;28;20047;-82
2022/09/19 04:18:47;;;;;;;12.30;3.90;;;;;;;9.02;100.00;67776.50;4954690;28;20495;-82
2022/09/19 04:21:13;;;;;;;13.43;3.67;;;;;;;9.05;100.00;67779.31;4952506;28;20087;-82
2022/09/19 04:23:38;;;;;;;16.65;3.33;;;;;;;;;;4953978;28;20055;-82
2022/09/19 04:26:04;;;;;;;15.45;4.63;;;;;;;9.19;100.00;67795.19;4951717;28;20047;-83
2022/09/19 04:28:30;;;;;;;12.77;3.53;;;;;;;9.19;100.00;67794.63;4953130;28;20502;-82
2022/09/19 04:30:55;;;;;;;12.73;3.28;;;;;;;9.19;100.00;67789.88;4950869;28;20068;-82
2022/09/19 04:33:22;;;;;;;15.52;3.20;;;;;;;9.21;100.00;67789.50;4953380;28;20031;-82
2022/09/19 04:35:47;;;;;;;16.02;3.10;;;;;;;;;;4952342;28;20032;-82
2022/09/19 04:38:17;;;;;;;17.00;3.20;;;;;;;9.19;100.00;67789.88;4948407;28;20120;-82
2022/09/19 04:40:45;;;;;;;17.08;3.63;;;;;;;9.22;100.00;67793.28;4949013;28;20176;-82
2022/09/19 04:43:13;;;;;;;15.73;3.55;;;;;;;9.26;100.00;67803.13;4950585;28;20047;-82
2022/09/19 04:45:40;;;;;;;13.63;3.45;;;;;;;9.24;100.00;67800.31;4951922;28;20062;-82
2022/09/19 04:48:06;;;;;;;16.52;3.00;;;;;;;;;;4953933;28;20134;-83
2022/09/19 04:50:33;;;;;;;13.60;3.38;;;;;;;9.27;100.00;67798.94;4951845;28;20130;-83
2022/09/19 04:52:58;;;;;;;12.23;3.17;;;;;;;;;;4951823;28;20078;-83
2022/09/19 04:55:25;;;;;;;12.55;3.35;;;;;;;;;;4981978;28;20080;-83
2022/09/19 04:57:50;;;;;;;14.77;3.53;;;;;;;;;;4951423;28;20117;-83
2022/09/19 05:00:36;;;;;;;13.48;2.92;;;;;;;9.35;100.00;67807.47;4951010;28;20663;-83
2022/09/19 05:03:02;;;;;;;16.52;3.25;;;;;;;9.38;100.00;67815.59;4947588;28;20134;-83
2022/09/19 05:05:29;;;;;;;14.10;3.30;;;;;;;9.39;100.00;67811.44;4970010;28;20124;-82
2022/09/19 05:07:54;;;;;;;16.40;2.63;;;;;;;9.37;100.00;67815.03;4971343;28;20046;-83
2022/09/19 05:10:19;;;;;;;13.10;2.72;;;;;;;;;;4961532;28;20147;-83
2022/09/19 05:12:45;;;;;;;11.40;3.30;;;;;;;9.40;100.00;67813.13;4963303;28;20085;-83
2022/09/19 05:15:10;;;;;;;11.77;3.28;;;;;;;9.36;100.00;67808.59;4971034;28;20387;-83
2022/09/19 05:17:37;;;;;;;14.73;3.70;;;;;;;;;;4971761;28;20035;-83
2022/09/19 05:20:03;;;;;;;14.45;4.15;;;;;;;;;;4954445;28;20055;-83
2022/09/19 05:22:29;;;;;;;14.20;3.60;;;;;;;;;;4972188;28;20077;-83
2022/09/19 05:24:54;;;;;;;10.48;2.88;;;;;;;9.30;100.00;67801.22;4972433;28;20165;-83
2022/09/19 05:27:19;;;;;;;12.57;3.03;;;;;;;9.30;100.00;67798.56;4971054;28;20047;-83
2022/09/19 05:29:45;;;;;;;15.18;3.40;;;;;;;9.31;100.00;67807.66;4953685;28;20057;-83
2022/09/19 05:32:10;;;;;;;13.20;3.67;;;;;;;9.23;100.00;67793.84;4973743;28;20529;-83
2022/09/19 05:34:35;;;;;;;15.00;3.13;;;;;;;;;;4972930;28;20049;-83
2022/09/19 05:37:01;;;;;;;15.68;3.42;;;;;;;9.19;100.00;67787.22;4972850;28;20077;-84
2022/09/19 05:39:26;;;;;;;14.60;3.35;;;;;;;;;;4986161;28;20054;-84
2022/09/19 05:41:52;;;;;;;13.40;3.85;;;;;;;9.15;100.00;67784.78;4975980;28;20047;-83
2022/09/19 05:44:17;;;;;;;16.45;3.58;;;;;;;;;;4972354;28;20039;-84
2022/09/19 05:46:45;;;;;;;17.15;3.88;;;;;;;;;;4974370;28;20558;-84
2022/09/19 05:49:10;;;;;;;11.50;3.60;;;;;;;9.07;100.00;67781.59;4975364;28;20055;-83
2022/09/19 05:51:35;;;;;;;15.93;4.35;;;;;;;9.07;100.00;67776.28;4979524;28;20763;-84
2022/09/19 05:54:01;;;;;;;16.83;4.18;;;;;;;9.05;100.00;67779.31;4983320;28;20043;-84
2022/09/19 05:56:26;;;;;;;18.20;4.30;;;;;;;9.02;100.00;67776.50;4986071;28;21625;-85
2022/09/19 05:58:53;;;;;;;14.23;3.85;;;;;;;9.09;100.00;67783.28;4968840;28;20512;-85
2022/09/19 06:01:18;;;;;;;18.48;3.88;;;;;;;9.07;100.00;67781.59;4984965;28;20046;-85
2022/09/19 06:03:45;;;;;;;16.83;3.95;;;;;;;9.01;100.00;67775.38;4987047;28;20051;-85
2022/09/19 06:06:18;;;;;;;22.38;4.20;;;;;;;9.04;100.00;67781.41;4983775;28;20122;-84
2022/09/19 06:08:45;;;;;;;15.55;3.90;;;;;;;9.02;100.00;67775.94;4980236;28;20043;-85
2022/09/19 06:11:11;;;;;;;19.88;3.78;;;;;;;;;;4983193;28;20066;-84
2022/09/19 06:16:21;;;;;;;15.13;4.00;;;;;;;;;;4961827;28;20738;-83
2022/09/19 06:18:47;;;;;;;14.55;4.10;;;;;;;9.05;100.00;67779.31;4958350;28;20058;-84
2022/09/19 06:21:13;;;;;;;12.45;3.72;;;;;;;9.08;100.00;67785.38;4966297;28;20046;-83
2022/09/19 06:23:39;;;;;;;14.10;3.88;;;;;;;9.14;100.00;67783.66;4974433;28;20126;-84
2022/09/19 06:26:04;;;;;;;13.60;4.57;;;;;;;;;;4974534;28;20125;-83
2022/09/19 06:28:30;;;;;;;13.40;3.45;;;;;;;;;;4971984;28;20078;-84
2022/09/19 06:31:00;;;;;;;14.25;3.75;;;;;;;9.32;100.00;67803.47;4973881;28;20511;-83
2022/09/19 06:33:26;;;;;;;14.18;4.20;;;;;;;;;;4954086;28;20039;-83
2022/09/19 06:35:55;;;;;;;13.00;4.05;;;;;;;;;;4967594;28;20057;-85
2022/09/19 06:38:20;;;;;;;16.50;4.25;;;;;;;;;;4973512;28;20621;-84
2022/09/19 06:40:45;;;;;;;12.25;3.47;;;;;;;9.56;100.00;67830.69;4976404;28;20077;-84
2022/09/19 06:43:11;;;;;;;18.85;4.20;;;;;;;;;;4977727;28;20041;-84
2022/09/19 06:45:38;;;;;;;14.13;3.50;;;;;;;;;;4973830;28;20106;-83
2022/09/19 06:48:03;;;;;;;14.77;4.10;;;;;;;;;;4976674;28;20498;-84
2022/09/19 06:50:29;;;;;;;11.38;2.92;;;;;;;;;;4975786;28;20061;-85
2022/09/19 06:52:55;;;;;;;15.07;2.67;;;;;;;;;;4973825;28;20038;-84
2022/09/19 06:55:23;;;;;;;12.95;2.97;;;;;;;10.02;100.00;67887.03;4976546;28;20070;-84
2022/09/19 06:58:02;;;;;;;15.50;4.10;;;;;;;10.09;100.00;67889.09;4965422;28;20043;-84
2022/09/19 07:00:28;;;;;;;;;;;;;;;10.16;100.00;67897.59;4958174;28;20070;-86
2022/09/19 07:03:01;;;;;;;12.32;3.60;;;;;;;10.21;100.00;67902.13;4955571;28;19919;-84
2022/09/19 07:05:30;;;;;;;13.10;3.42;;;;;;;;;;4958920;29;20085;-84
2022/09/19 07:07:55;;;;;;;11.50;3.42;;;;;;;10.38;100.00;67927.31;4975941;28;20038;-85
2022/09/19 07:10:21;;;;;;;9.00;2.90;;;;;;;;;;4980988;28;20049;-84
2022/09/19 07:12:55;;;;;;;9.30;2.55;;;;;;;10.61;100.00;67946.97;4980357;28;20102;-84
2022/09/19 07:15:21;;;;;;;15.65;3.05;;;;;;;10.72;100.00;67959.47;4977038;28;20035;-85
2022/09/19 07:17:47;;;;;;;10.20;2.40;;;;;;;10.76;100.00;67964.00;4983087;28;20081;-84
2022/09/19 07:20:12;;;;;;;9.90;2.60;;;;;;;10.86;100.00;67980.09;4977401;28;20053;-84
2022/09/19 07:22:38;;;;;;;8.00;2.60;;;;;;;10.96;100.00;67990.88;4971324;28;20054;-84
2022/09/19 07:25:03;;;;;;;14.35;2.78;;;;;;;;;;4950852;28;20131;-83
2022/09/19 07:27:28;;;;;;;7.93;2.13;;;;;;;;;;4971091;28;20043;-84
2022/09/19 07:29:54;;;;;;;11.75;2.10;;;;;;;11.25;100.00;68018.50;4972622;28;20065;-84
2022/09/19 07:32:19;;;;;;;13.85;2.38;;;;;;;11.38;100.00;68032.69;4966921;28;20081;-83
2022/09/19 07:34:45;;;;;;;8.60;1.77;;;;;;;11.48;100.00;68044.03;4972092;28;20051;-84
2022/09/19 07:37:11;;;;;;;7.53;1.70;;;;;;;11.55;100.00;68050.84;4971602;28;20463;-84
2022/09/19 07:39:36;;;;;;;8.68;1.80;;;;;;;11.66;100.00;68063.34;4965463;28;20043;-84
2022/09/19 07:42:02;;;;;;;10.70;2.58;;;;;;;;;;4964551;28;20045;-83
2022/09/19 07:44:27;;;;;;;8.20;2.05;;;;;;;11.83;100.00;68082.66;4968334;28;20053;-84
2022/09/19 07:49:36;;;;;;;7.05;1.50;;;;;;;12.00;100.00;68100.84;4952848;28;20054;-83
2022/09/19 07:52:02;;;;;;;7.72;1.48;;;;;;;11.99;100.00;68091.72;4953390;28;20039;-84
2022/09/19 07:54:27;;;;;;;8.48;1.33;;;;;;;12.10;100.00;68117.53;4973420;28;20082;-84
2022/09/19 07:56:52;;;;;;;9.65;2.25;;;;;;;12.18;100.00;68116.53;4951523;29;20089;-83
2022/09/19 07:59:17;;;;;;;11.48;2.17;;;;;;;;;;4964877;28;20070;-84
2022/09/19 08:01:43;;;;;;;8.68;1.80;;;;;;;12.36;100.00;68141.75;4972626;28;20103;-85
2022/09/19 08:04:08;;;;;;;11.10;2.00;;;;;;;12.43;100.00;68154.50;4969162;28;20837;-84
2022/09/19 08:06:33;;;;;;;9.20;1.48;;;;;;;12.56;100.00;68163.34;4971226;28;20454;-85
2022/09/19 08:08:59;;;;;;;5.95;1.42;;;;;;;;;;4971265;28;20636;-83
2022/09/19 08:11:25;;;;;;;9.32;1.70;;;;;;;12.64;100.00;68173.00;4972343;28;20047;-84
2022/09/19 08:13:50;;;;;;;5.50;1.42;;;;;;;12.79;100.00;68186.81;4974585;28;20545;-86
2022/09/19 08:16:16;;;;;;;9.57;1.55;;;;;;;;;;4965501;28;20051;-84
2022/09/19 08:18:41;;;;;;;8.23;1.60;;;;;;;12.93;100.00;68198.94;4976953;28;20104;-83
2022/09/19 08:21:07;;;;;;;7.47;1.85;;;;;;;12.95;100.00;68206.56;4974670;28;20121;-84
2022/09/19 08:23:32;;;;;;;8.55;1.67;;;;;;;12.98;99.46;68207.28;4975908;28;20079;-83
2022/09/19 08:26:01;;;;;;;9.57;2.25;;;;;;;12.99;99.01;68211.66;4973541;28;20479;-84
2022/09/19 08:28:29;;;;;;;7.30;1.73;;;;;;;13.02;98.21;68209.16;4957773;28;20438;-83
2022/09/19 08:30:59;;;;;;;10.10;1.30;;;;;;;13.12;98.78;68230.63;4974292;28;20118;-83
2022/09/19 08:33:25;;;;;;;5.53;1.38;;;;;;;13.16;98.45;68227.19;4972646;28;20050;-84
2022/09/19 08:35:52;;;;;;;7.22;1.55;;;;;;;13.19;96.64;68233.84;4966563;28;20035;-85
2022/09/19 08:38:17;;;;;;;11.50;1.70;;;;;;;13.30;97.90;68246.38;4970258;28;20042;-84
2022/09/19 08:40:58;;;;;;;7.90;1.70;;;;;;;13.38;95.81;68254.31;4971065;28;22636;-84
2022/09/19 08:43:35;;;;;;;6.25;1.33;;;;;;;13.45;95.95;68260.19;4948052;28;20047;-83
2022/09/19 08:46:10;;;;;;;8.35;1.50;;;;;;;13.53;96.63;68271.97;4971757;28;20102;-83
2022/09/19 08:49:00;;;;;;;6.90;1.85;;;;;;;13.60;94.90;68284.69;4972130;28;20043;-83
2022/09/19 08:51:34;;;;;;;11.68;1.73;;;;;;;13.68;94.47;68288.44;4952533;28;20108;-83
2022/09/19 08:54:03;;;;;;;5.32;1.58;;;;;;;;;;4969339;28;20496;-83
2022/09/19 08:56:29;;;;;;;9.20;1.40;;;;;;;;;;4969754;28;20047;-84
2022/09/19 08:59:01;;;;;;;9.13;1.73;;;;;;;14.04;93.12;68325.00;4970366;28;20568;-83
2022/09/19 09:01:32;;;;;;;8.43;1.67;;;;;;;14.01;91.59;68322.16;4969595;28;20557;-83
2022/09/19 09:04:06;;;;;;;6.75;1.73;;;;;;;13.88;91.46;68304.72;4973614;28;20047;-84
2022/09/19 09:06:46;;;;;;;8.05;1.60;;;;;;;;;;4973243;28;20042;-83
2022/09/19 09:09:31;;;;;;;7.82;1.85;;;;;;;;;;4975263;28;20093;-83
2022/09/19 09:12:19;;;;;;;8.80;1.63;;;;;;;14.02;90.25;68326.00;4974378;28;20063;-83
2022/09/19 09:14:54;;;;;;;9.02;1.60;;;;;;;13.97;89.27;68320.31;4973213;28;20043;-83
2022/09/19 09:17:42;;;;;;;10.30;1.70;;;;;;;;;;4966876;28;20740;-84
2022/09/19 09:20:14;;;;;;;9.07;1.90;;;;;;;14.01;89.39;68324.84;4965614;28;20686;-83
2022/09/19 09:22:41;;;;;;;6.88;1.98;;;;;;;;;;4975284;28;20074;-83
2022/09/19 09:25:18;;;;;;;6.82;1.63;;;;;;;14.29;88.07;68352.91;4976195;28;20077;-83
2022/09/19 09:27:56;;;;;;;8.40;1.60;;;;;;;14.32;86.79;68359.56;4963834;28;20035;-84
2022/09/19 09:30:22;;;;;;;10.18;2.40;;;;;;;14.27;87.87;68353.31;4962546;28;20058;-83
2022/09/19 09:32:56;;;;;;;9.43;2.03;;;;;;;14.48;87.91;68374.53;4976867;28;20109;-84
2022/09/19 09:35:35;;;;;;;10.77;1.95;;;;;;;14.55;87.36;68384.63;4967481;28;20035;-85
2022/09/19 09:38:18;;;;;;;6.93;1.30;;;;;;;;;;4975695;28;20150;-83
2022/09/19 09:43:50;;;;;;;8.48;1.50;;;;;;;14.70;85.77;68401.69;4974986;28;20109;-84
2022/09/19 09:46:25;;;;;;;9.65;1.85;;;;;;;14.63;85.16;68394.31;4970140;28;20039;-83
2022/09/19 09:48:53;;;;;;;6.85;1.60;;;;;;;14.51;83.53;68375.28;4969313;28;20038;-83
2022/09/19 09:51:39;;;;;;;6.65;1.50;;;;;;;14.43;82.94;68368.84;4970606;28;20039;-82
2022/09/19 09:58:10;;;;;;;7.68;1.13;;;;;;;14.82;80.61;68415.38;4881262;28;20141;-83
2022/09/19 10:03:34;;;;;;;9.50;1.60;;;;;;;15.16;80.13;68447.00;4968333;28;20098;-83
2022/09/19 10:06:14;;;;;;;6.25;1.33;;;;;;;15.05;80.33;68441.00;4970531;28;20038;-83
2022/09/19 10:09:12;;;;;;;8.02;1.50;;;;;;;14.92;81.32;68431.53;4968221;28;20852;-83
2022/09/19 10:11:44;;;;;;;6.90;1.42;;;;;;;14.85;83.18;68416.13;4973545;28;20046;-84
2022/09/19 10:14:20;;;;;;;6.07;1.30;;;;;;;14.88;82.25;68419.53;4974874;28;21123;-82
2022/09/19 10:16:53;;;;;;;7.55;1.23;;;;;;;14.85;82.46;68423.59;4975923;28;20039;-82
2022/09/19 10:19:34;;;;;;;7.43;1.83;;;;;;;14.75;81.96;68406.81;4958595;28;20557;-84
2022/09/19 10:21:59;;;;;;;7.78;1.45;;;;;;;14.92;82.75;68420.81;4976827;28;20665;-82
2022/09/19 10:24:51;;;;;;;7.30;1.30;;;;;;;15.06;79.72;68439.44;4975429;28;20053;-82
2022/09/19 10:27:24;;;;;;;6.35;1.38;;;;;;;15.19;79.37;68453.09;4977017;28;20046;-84
2022/09/19 10:29:53;;;;;;;8.38;1.17;;;;;;;15.33;78.13;68472.31;4957320;28;20106;-81
2022/09/19 10:32:23;;;;;;;9.77;1.83;;;;;;;;;;4990781;28;20652;-84
2022/09/19 10:34:50;;;;;;;7.80;1.30;;;;;;;;;;4978305;28;20470;-83
2022/09/19 10:37:18;;;;;;;7.40;1.70;;;;;;;15.35;77.76;68471.34;4975696;28;20063;-82
2022/09/19 10:39:46;;;;;;;6.53;1.50;;;;;;;15.20;79.23;68457.50;4979709;28;20130;-82
2022/09/19 10:42:34;;;;;;;9.20;1.52;;;;;;;15.19;81.25;68455.78;4979557;28;20034;-83
2022/09/19 10:45:02;;;;;;;11.13;1.58;;;;;;;15.41;81.40;68475.50;4956187;29;20071;-83
2022/09/19 10:47:28;;;;;;;5.93;1.15;;;;;;;15.52;79.23;68493.38;4977327;28;20542;-84
2022/09/19 10:50:00;;;;;;;8.00;1.20;;;;;;;15.57;77.35;68499.09;4980131;28;20046;-82
2022/09/19 10:52:33;;;;;;;10.13;1.90;;;;;;;15.48;78.24;68494.19;4979777;28;20589;-83
2022/09/19 10:55:01;;;;;;;5.78;1.52;;;;;;;15.54;77.73;68490.31;4976832;28;20522;-83
2022/09/19 10:57:50;;;;;;;5.45;1.58;;;;;;;15.48;76.53;68488.84;4969817;28;20081;-85
2022/09/19 11:00:47;;;;;;;7.70;1.50;;;;;;;15.72;76.88;68509.69;4980806;28;20042;-84
2022/09/19 11:03:23;;;;;;;5.18;1.02;;;;;;;15.94;75.01;68534.19;4970402;28;20082;-84
2022/09/19 11:06:03;;;;;;;8.73;1.00;;;;;;;16.14;75.47;68561.78;4966512;28;20561;-84
2022/09/19 11:08:30;;;;;;;5.47;1.20;;;;;;;16.18;73.31;68564.22;4984604;28;20042;-85
2022/09/19 11:10:56;;;;;;;6.10;1.08;;;;;;;16.28;73.94;68575.03;4975464;28;20066;-85
2022/09/19 11:13:25;;;;;;;6.22;1.20;;;;;;;16.31;72.88;68578.47;4987921;28;20118;-85
2022/09/19 11:16:19;;;;;;;5.97;1.40;;;;;;;16.50;73.70;68599.00;4986373;28;20058;-86
2022/09/19 11:19:20;;;;;;;5.97;1.25;;;;;;;16.58;72.82;68605.44;4969207;28;20031;-84
2022/09/19 11:22:29;;;;;;;3.67;1.00;;;;;;;16.22;69.56;68565.53;4954914;28;20047;-84
2022/09/19 11:25:13;;;;;;;4.80;1.27;;;;;;;15.80;71.03;68524.19;4937262;29;20044;-85
2022/09/19 11:28:04;;;;;;;6.10;1.45;;;;;;;15.84;70.76;68528.72;4968171;28;20213;-85
2022/09/19 11:30:35;;;;;;;5.55;1.30;;;;;;;15.99;70.88;68543.13;4974484;28;20050;-85
2022/09/19 11:33:28;;;;;;;4.90;1.08;;;;;;;16.01;71.09;68542.72;4983106;28;20049;-84
2022/09/19 11:35:59;;;;;;;8.35;1.30;;;;;;;16.40;71.21;68591.44;4934081;29;20043;-84
2022/09/19 11:38:50;;;;;;;8.93;1.35;;;;;;;16.54;69.69;68600.84;4977247;28;20050;-85
2022/09/19 11:41:37;;;;;;;6.65;1.20;;;;;;;16.59;67.10;68617.31;4965305;28;20683;-85
2022/09/19 11:44:27;;;;;;;3.50;1.02;;;;;;;16.79;68.25;68634.75;4958927;28;20086;-85
2022/09/19 11:47:12;;;;;;;5.35;0.90;;;;;;;16.92;66.85;68649.59;4959245;28;20055;-86
2022/09/19 11:50:08;;;;;;;6.00;1.35;;;;;;;16.94;66.38;68650.72;4957709;28;20063;-84
2022/09/19 11:52:42;;;;;;;6.72;1.45;;;;;;;16.73;66.72;68621.97;4954543;28;20058;-85
2022/09/19 11:55:31;;;;;;;8.38;1.10;;;;;;;16.61;68.38;68611.53;4955404;28;20047;-84
2022/09/19 11:58:10;;;;;;;3.53;0.90;;;;;;;16.62;65.90;68609.97;4972790;28;20039;-84
2022/09/19 12:00:54;;;;;;;5.10;0.77;;;;;;;16.71;65.38;68622.94;4963890;28;20070;-83
2022/09/19 12:03:29;;;;;;;5.50;1.02;;;;;;;16.90;66.50;68647.31;4959915;28;20446;-83
2022/09/19 12:06:22;;;;;;;4.63;1.10;;;;;;;17.03;64.53;68658.31;5001798;28;20041;-83
2022/09/19 12:08:48;;;;;;;6.18;1.10;;;;;;;17.04;65.15;68662.16;4974258;28;20597;-84
2022/09/19 12:11:24;;;;;;;4.45;1.00;;;;;;;17.09;63.83;68662.44;4965682;28;20035;-85
2022/09/19 12:14:17;;;;;;;4.85;1.02;;;;;;;17.34;63.61;68690.97;4969773;28;20054;-84
2022/09/19 12:16:53;;;;;;;3.30;0.80;;;;;;;17.35;61.60;68694.25;4941834;28;20039;-83
2022/09/19 12:19:24;;;;;;;4.97;1.02;;;;;;;17.27;61.03;68685.69;4967542;28;20035;-83
2022/09/19 12:21:53;;;;;;;5.50;1.38;;;;;;;17.15;62.49;68672.00;4945725;29;20044;-84
2022/09/19 12:27:32;;;;;;;4.97;0.88;;;;;;;;;;4948033;28;20146;-85
2022/09/19 12:30:07;;;;;;;6.13;1.52;;;;;;;;;;4969988;28;20062;-84
2022/09/19 12:32:47;;;;;;;6.78;1.00;;;;;;;14.55;85.08;68385.19;4966857;28;20601;-84
2022/09/19 12:35:30;;;;;;;6.45;1.08;;;;;;;14.28;90.30;68354.44;4975843;28;20077;-84
2022/09/19 12:38:15;;;;;;;5.82;1.20;;;;;;;13.96;90.52;68319.16;4971543;28;20047;-84
2022/09/19 12:40:49;;;;;;;7.60;1.67;;;;;;;13.75;93.04;68293.75;4958241;28;20058;-84
2022/09/19 12:43:30;;;;;;;8.00;1.30;;;;;;;13.53;96.07;68271.38;4979934;28;20047;-85
2022/09/19 12:46:10;;;;;;;7.70;1.45;;;;;;;13.24;98.29;68239.53;4963276;28;20074;-85
2022/09/19 12:48:53;;;;;;;;;;;;;;;13.04;99.85;68216.78;4979115;28;20049;-83
2022/09/19 12:52:00;;;;;;;7.15;1.35;;;;;;;12.75;100.00;68184.94;4979717;28;19925;-83